createdAt,value
2022-09-23T00:01:19.192Z,2.05
2022-09-23T00:03:49.124Z,3.13
2022-09-23T00:06:21.644Z,2.10
2022-09-23T00:08:51.440Z,2.63
2022-09-23T00:11:22.451Z,1.85
2022-09-23T00:13:53.782Z,2.75
2022-09-23T00:16:26.485Z,2.58
2022-09-23T00:18:54.913Z,1.88
2022-09-23T00:21:25.433Z,2.30
2022-09-23T00:23:54.907Z,1.88
2022-09-23T00:26:24.698Z,2.33
2022-09-23T00:28:53.405Z,2.25
2022-09-23T00:31:24.551Z,1.90
2022-09-23T00:33:57.763Z,2.30
2022-09-23T00:36:28.906Z,2.58
2022-09-23T00:38:57.738Z,3.28
2022-09-23T00:41:27.152Z,2.17
2022-09-23T00:43:58.773Z,2.65
2022-09-23T00:46:35.487Z,2.67
2022-09-23T00:49:10.369Z,1.98
2022-09-23T00:51:45.754Z,1.98
2022-09-23T00:54:14.479Z,2.47
2022-09-23T00:56:42.851Z,1.67
2022-09-23T00:59:11.569Z,2.05
2022-09-23T01:01:40.915Z,1.75
2022-09-23T01:04:09.927Z,2.20
2022-09-23T01:06:39.644Z,11.27
2022-09-23T01:09:08.126Z,4.18
2022-09-23T01:11:48.445Z,2.47
2022-09-23T01:14:38.038Z,1.65
2022-09-23T01:17:17.316Z,1.45
2022-09-23T01:20:29.562Z,1.30
2022-09-23T01:23:14.268Z,2.15
2022-09-23T01:26:08.228Z,1.33
2022-09-23T01:29:03.453Z,1.20
2022-09-23T01:31:44.516Z,1.52
2022-09-23T01:34:16.734Z,1.38
2022-09-23T01:36:51.709Z,1.38
2022-09-23T01:39:35.232Z,0.98
2022-09-23T01:42:17.020Z,0.98
2022-09-23T01:44:52.946Z,1.42
2022-09-23T01:47:29.358Z,1.42
2022-09-23T01:50:02.939Z,2.38
2022-09-23T01:52:48.295Z,1.38
2022-09-23T01:55:25.902Z,1.75
2022-09-23T01:58:02.519Z,1.60
2022-09-23T02:00:36.051Z,1.42
2022-09-23T02:03:15.252Z,2.75
2022-09-23T02:05:49.280Z,2.50
2022-09-23T02:08:24.107Z,1.70
2022-09-23T02:10:58.779Z,1.30
2022-09-23T02:13:33.564Z,2.00
2022-09-23T02:16:08.686Z,1.35
2022-09-23T02:18:46.567Z,1.65
2022-09-23T02:21:18.859Z,1.00
2022-09-23T02:23:53.211Z,1.27
2022-09-23T02:26:29.588Z,1.60
2022-09-23T02:29:09.146Z,1.42
2022-09-23T02:31:44.202Z,1.33
2022-09-23T02:34:25.037Z,1.70
2022-09-23T02:37:17.162Z,1.20
2022-09-23T02:39:58.705Z,2.03
2022-09-23T02:42:38.922Z,1.98
2022-09-23T02:45:08.299Z,1.02
2022-09-23T02:47:41.603Z,1.80
2022-09-23T02:50:12.140Z,1.33
2022-09-23T02:52:41.074Z,1.33
2022-09-23T02:55:13.105Z,1.40
2022-09-23T02:57:41.494Z,2.13
2022-09-23T03:00:12.482Z,1.38
2022-09-23T03:03:03.936Z,1.52
2022-09-23T03:05:39.955Z,1.67
2022-09-23T03:08:25.809Z,1.50
2022-09-23T03:11:01.966Z,1.65
2022-09-23T03:13:38.536Z,1.48
2022-09-23T03:16:16.993Z,1.10
2022-09-23T03:18:54.114Z,1.88
2022-09-23T03:21:28.373Z,1.40
2022-09-23T03:24:00.544Z,1.55
2022-09-23T03:26:34.276Z,1.80
2022-09-23T03:29:05.065Z,1.58
2022-09-23T03:31:34.554Z,1.13
2022-09-23T03:34:09.682Z,1.60
2022-09-23T03:36:53.990Z,1.70
2022-09-23T03:39:34.269Z,1.70
2022-09-23T03:42:12.674Z,2.17
2022-09-23T03:44:45.488Z,1.90
2022-09-23T03:47:14.917Z,1.45
2022-09-23T03:49:48.417Z,2.28
2022-09-23T03:52:19.210Z,1.50
2022-09-23T03:54:47.762Z,2.25
2022-09-23T03:57:16.470Z,1.73
2022-09-23T03:59:44.904Z,1.92
2022-09-23T04:02:13.328Z,2.03
2022-09-23T04:04:41.770Z,2.53
2022-09-23T04:07:11.163Z,2.35
2022-09-23T04:09:42.021Z,1.80
2022-09-23T04:12:14.850Z,1.95
2022-09-23T04:14:43.547Z,3.28
2022-09-23T04:17:12.905Z,1.75
2022-09-23T04:19:41.402Z,2.35
2022-09-23T04:22:10.618Z,2.15
2022-09-23T04:24:40.341Z,1.58
2022-09-23T04:27:08.649Z,1.60
2022-09-23T04:29:36.987Z,2.13
2022-09-23T04:32:05.419Z,1.77
2022-09-23T04:34:33.903Z,1.90
2022-09-23T04:37:02.193Z,2.35
2022-09-23T04:39:30.511Z,1.67
2022-09-23T04:42:00.236Z,2.33
2022-09-23T04:44:29.598Z,2.22
2022-09-23T04:46:58.477Z,2.17
2022-09-23T04:49:27.032Z,1.42
2022-09-23T04:51:55.863Z,2.97
2022-09-23T04:54:24.182Z,2.30
2022-09-23T04:56:52.558Z,2.25
2022-09-23T04:59:22.219Z,2.38
2022-09-23T05:01:51.822Z,1.75
2022-09-23T05:04:20.183Z,2.33
2022-09-23T05:06:49.286Z,2.40
2022-09-23T05:09:18.804Z,1.95
2022-09-23T05:11:47.396Z,2.22
2022-09-23T05:14:15.998Z,2.72
2022-09-23T05:16:45.780Z,2.40
2022-09-23T05:19:14.216Z,4.03
2022-09-23T05:21:42.550Z,3.03
2022-09-23T05:24:10.927Z,2.70
2022-09-23T05:26:39.406Z,2.53
2022-09-23T05:29:07.983Z,3.25
2022-09-23T05:31:36.935Z,2.13
2022-09-23T05:34:07.337Z,2.03
2022-09-23T05:36:39.010Z,2.53
2022-09-23T05:39:09.231Z,2.83
2022-09-23T05:41:38.328Z,2.28
2022-09-23T05:44:06.849Z,3.45
2022-09-23T05:46:35.569Z,3.00
2022-09-23T05:49:07.566Z,3.10
2022-09-23T05:51:36.560Z,2.20
2022-09-23T05:54:05.811Z,2.97
2022-09-23T05:56:35.738Z,2.50
2022-09-23T05:59:05.723Z,3.30
2022-09-23T06:01:36.799Z,2.53
2022-09-23T06:04:08.670Z,2.67
2022-09-23T06:06:40.137Z,3.03
2022-09-23T06:09:13.490Z,3.10
2022-09-23T06:11:42.530Z,2.92
2022-09-23T06:14:13.955Z,3.20
2022-09-23T06:16:43.168Z,2.80
2022-09-23T06:19:13.023Z,2.95
2022-09-23T06:21:41.954Z,3.55
2022-09-23T06:24:14.878Z,2.47
2022-09-23T06:26:45.160Z,2.60
2022-09-23T06:29:14.554Z,3.33
2022-09-23T06:31:43.461Z,2.60
2022-09-23T06:34:14.971Z,3.88
2022-09-23T06:36:45.848Z,3.90
2022-09-23T06:39:15.761Z,4.38
2022-09-23T06:41:44.765Z,3.38
2022-09-23T06:44:13.429Z,3.53
2022-09-23T06:46:41.958Z,4.45
2022-09-23T06:49:13.491Z,5.55
2022-09-23T06:51:43.474Z,4.07
2022-09-23T06:54:12.092Z,3.65
2022-09-23T06:56:40.721Z,3.72
2022-09-23T06:59:13.202Z,4.63
2022-09-23T07:01:41.787Z,3.67
2022-09-23T07:04:10.748Z,3.83
2022-09-23T07:06:39.189Z,2.92
2022-09-23T07:09:11.115Z,3.50
2022-09-23T07:11:39.501Z,3.58
2022-09-23T07:14:07.994Z,5.47
2022-09-23T07:16:36.307Z,6.90
2022-09-23T07:19:04.641Z,4.10
2022-09-23T07:21:33.365Z,4.25
2022-09-23T07:24:01.979Z,3.88
2022-09-23T07:26:34.186Z,3.70
2022-09-23T07:29:05.194Z,3.35
2022-09-23T07:31:39.661Z,2.90
2022-09-23T07:34:11.497Z,2.95
2022-09-23T07:36:41.709Z,3.47
2022-09-23T07:39:12.767Z,3.10
2022-09-23T07:41:44.612Z,2.45
2022-09-23T07:44:13.750Z,2.95
2022-09-23T07:46:42.419Z,3.25
2022-09-23T07:49:11.414Z,2.67
2022-09-23T07:51:41.891Z,3.55
2022-09-23T07:54:15.131Z,3.20
2022-09-23T07:56:45.499Z,2.38
2022-09-23T07:59:18.396Z,3.28
2022-09-23T08:01:49.027Z,2.38
2022-09-23T08:04:21.215Z,2.88
2022-09-23T08:06:52.245Z,2.47
2022-09-23T08:09:23.975Z,2.70
2022-09-23T08:11:54.193Z,3.22
2022-09-23T08:14:23.481Z,2.63
2022-09-23T08:16:52.961Z,3.00
2022-09-23T08:19:21.678Z,2.35
2022-09-23T08:21:52.260Z,3.20
2022-09-23T08:24:24.288Z,2.78
2022-09-23T08:26:55.509Z,3.47
2022-09-23T08:29:26.428Z,2.70
2022-09-23T08:31:55.725Z,3.05
2022-09-23T08:34:24.794Z,2.42
2022-09-23T08:36:53.416Z,3.22
2022-09-23T08:39:23.192Z,2.03
2022-09-23T08:42:08.270Z,3.88
2022-09-23T08:44:50.401Z,4.10
2022-09-23T08:47:24.668Z,2.55
2022-09-23T08:50:01.404Z,2.63
2022-09-23T08:52:36.979Z,1.80
2022-09-23T08:55:07.309Z,2.75
2022-09-23T08:58:02.311Z,2.90
2022-09-23T09:00:42.248Z,2.25
2022-09-23T09:03:23.949Z,2.55
2022-09-23T09:05:54.912Z,2.53
2022-09-23T09:08:29.799Z,2.03
2022-09-23T09:11:00.157Z,3.28
2022-09-23T09:13:35.739Z,2.50
2022-09-23T09:16:48.290Z,3.20
2022-09-23T09:19:43.839Z,2.47
2022-09-23T09:22:21.330Z,2.67
2022-09-23T09:24:50.982Z,3.38
2022-09-23T09:27:19.576Z,2.10
2022-09-23T09:29:53.684Z,2.42
2022-09-23T09:32:36.605Z,2.60
2022-09-23T09:35:20.167Z,2.67
2022-09-23T09:37:49.507Z,2.05
2022-09-23T09:40:20.544Z,2.97
2022-09-23T09:42:51.438Z,3.67
2022-09-23T09:45:33.900Z,2.50
2022-09-23T09:48:12.002Z,1.90
2022-09-23T09:50:49.273Z,1.83
2022-09-23T09:53:26.830Z,2.17
2022-09-23T09:56:05.975Z,2.42
2022-09-23T09:58:46.081Z,2.90
2022-09-23T10:01:24.882Z,3.10
2022-09-23T10:03:59.198Z,2.70
2022-09-23T10:06:32.512Z,1.92
2022-09-23T10:09:19.299Z,2.22
2022-09-23T10:12:14.969Z,2.42
2022-09-23T10:14:44.006Z,2.78
2022-09-23T10:17:21.329Z,2.70
2022-09-23T10:19:52.482Z,1.73
2022-09-23T10:22:29.920Z,1.95
2022-09-23T10:25:03.998Z,2.33
2022-09-23T10:27:36.057Z,2.05
2022-09-23T10:30:21.711Z,1.67
2022-09-23T10:32:54.983Z,2.33
2022-09-23T10:35:25.637Z,1.70
2022-09-23T10:37:55.818Z,2.03
2022-09-23T10:40:49.391Z,2.10
2022-09-23T10:43:46.195Z,1.58
2022-09-23T10:46:41.517Z,1.30
2022-09-23T10:50:14.211Z,2.38
2022-09-23T10:53:05.550Z,1.77
2022-09-23T10:55:49.614Z,1.95
2022-09-23T10:58:48.510Z,1.92
2022-09-23T11:01:31.247Z,1.67
2022-09-23T11:04:42.159Z,1.80
2022-09-23T11:07:23.886Z,1.58
2022-09-23T11:10:45.874Z,2.28
2022-09-23T11:13:35.768Z,1.88
2022-09-23T11:16:15.415Z,1.50
2022-09-23T11:19:06.102Z,1.67
2022-09-23T11:22:10.801Z,2.15
2022-09-23T11:25:23.872Z,1.60
2022-09-23T11:28:13.346Z,1.52
2022-09-23T11:30:54.710Z,2.20
2022-09-23T11:33:40.964Z,1.75
2022-09-23T11:36:13.634Z,1.65
2022-09-23T11:38:48.972Z,1.73
2022-09-23T11:41:24.857Z,1.67
2022-09-23T11:44:03.370Z,2.05
2022-09-23T11:46:40.072Z,1.30
2022-09-23T11:49:17.082Z,1.60
2022-09-23T11:52:02.637Z,1.13
2022-09-23T11:54:41.551Z,1.63
2022-09-23T11:57:29.228Z,1.27
2022-09-23T12:00:04.023Z,1.20
2022-09-23T12:02:58.975Z,1.65
2022-09-23T12:05:34.537Z,1.50
2022-09-23T12:08:13.445Z,1.77
2022-09-23T12:10:49.950Z,1.73
2022-09-23T12:13:27.738Z,1.48
2022-09-23T12:16:27.416Z,1.90
2022-09-23T12:19:15.689Z,1.40
2022-09-23T12:22:17.856Z,1.23
2022-09-23T12:24:55.703Z,1.30
2022-09-23T12:27:37.320Z,2.33
2022-09-23T12:30:17.791Z,2.47
2022-09-23T12:32:46.658Z,1.30
2022-09-23T12:35:32.171Z,1.33
2022-09-23T12:38:01.982Z,1.98
2022-09-23T12:40:36.563Z,1.90
2022-09-23T12:43:05.106Z,2.05
2022-09-23T12:45:40.268Z,1.60
2022-09-23T12:48:43.975Z,1.85
2022-09-23T12:51:21.792Z,1.45
2022-09-23T12:54:24.374Z,1.60
2022-09-23T12:57:05.386Z,1.58
2022-09-23T12:59:57.936Z,1.85
2022-09-23T13:02:38.478Z,1.48
2022-09-23T13:05:39.712Z,1.45
2022-09-23T13:08:13.547Z,1.20
2022-09-23T13:10:48.390Z,1.25
2022-09-23T13:13:24.682Z,1.20
2022-09-23T13:15:55.079Z,1.95
2022-09-23T13:18:54.163Z,1.67
2022-09-23T13:22:09.008Z,1.73
2022-09-23T13:24:44.521Z,1.20
2022-09-23T13:27:29.472Z,1.40
2022-09-23T13:30:06.328Z,1.55
2022-09-23T13:32:40.559Z,1.70
2022-09-23T13:35:22.771Z,1.50
2022-09-23T13:37:51.423Z,1.30
2022-09-23T13:40:24.936Z,1.33
2022-09-23T13:42:59.373Z,1.75
2022-09-23T13:45:30.998Z,1.77
2022-09-23T13:48:06.104Z,4.13
2022-09-23T13:50:40.945Z,2.05
2022-09-23T13:53:12.501Z,1.95
2022-09-23T13:55:41.684Z,1.83
2022-09-23T13:58:19.681Z,2.03
2022-09-23T14:00:49.520Z,1.55
2022-09-23T14:03:35.920Z,1.23
2022-09-23T14:06:12.879Z,1.70
2022-09-23T14:08:43.546Z,1.35
2022-09-23T14:11:17.409Z,1.15
2022-09-23T14:13:48.626Z,1.30
2022-09-23T14:16:19.695Z,1.63
2022-09-23T14:18:50.924Z,2.33
2022-09-23T14:21:35.240Z,1.98
2022-09-23T14:24:19.145Z,1.95
2022-09-23T14:26:50.891Z,1.85
2022-09-23T14:29:23.996Z,1.38
2022-09-23T14:31:57.761Z,1.80
2022-09-23T14:34:48.390Z,1.75
2022-09-23T14:37:46.833Z,3.25
2022-09-23T14:40:18.769Z,1.52
2022-09-23T14:42:51.456Z,1.50
2022-09-23T14:45:23.752Z,1.92
2022-09-23T14:47:57.965Z,1.48
2022-09-23T14:50:40.759Z,1.13
2022-09-23T14:53:34.922Z,1.75
2022-09-23T14:56:16.650Z,2.05
2022-09-23T14:58:52.689Z,1.52
2022-09-23T15:01:39.773Z,1.58
2022-09-23T15:04:30.512Z,1.33
2022-09-23T15:07:03.176Z,1.35
2022-09-23T15:09:37.123Z,1.35
2022-09-23T15:12:13.117Z,2.05
2022-09-23T15:14:46.564Z,2.10
2022-09-23T15:17:26.409Z,1.50
2022-09-23T15:19:59.763Z,0.98
2022-09-23T15:22:28.566Z,1.80
2022-09-23T15:25:17.671Z,2.33
2022-09-23T15:28:00.192Z,2.30
2022-09-23T15:30:28.839Z,2.33
2022-09-23T15:32:57.581Z,1.52
2022-09-23T15:35:27.417Z,1.98
2022-09-23T15:38:00.460Z,1.58
2022-09-23T15:40:32.488Z,1.80
2022-09-23T15:43:03.634Z,1.65
2022-09-23T15:45:37.720Z,1.20
2022-09-23T15:48:12.908Z,1.48
2022-09-23T15:50:42.793Z,1.40
2022-09-23T15:53:16.253Z,2.17
2022-09-23T15:55:46.422Z,1.45
2022-09-23T15:58:14.919Z,1.25
2022-09-23T16:00:43.467Z,1.38
2022-09-23T16:03:15.722Z,1.77
2022-09-23T16:05:46.793Z,1.98
2022-09-23T16:08:15.787Z,1.92
2022-09-23T16:10:45.662Z,1.45
2022-09-23T16:13:15.644Z,2.28
2022-09-23T16:15:44.883Z,1.92
2022-09-23T16:18:14.006Z,2.15
2022-09-23T16:20:45.488Z,1.98
2022-09-23T16:23:35.516Z,1.80
2022-09-23T16:26:08.814Z,1.85
2022-09-23T16:28:37.302Z,2.65
2022-09-23T16:31:06.338Z,1.40
2022-09-23T16:33:34.832Z,1.20
2022-09-23T16:36:03.873Z,1.20
2022-09-23T16:38:32.845Z,1.10
2022-09-23T16:41:01.479Z,1.48
2022-09-23T16:43:32.765Z,0.93
2022-09-23T16:46:01.279Z,1.40
2022-09-23T16:48:29.708Z,1.35
2022-09-23T16:50:58.171Z,1.88
2022-09-23T16:53:29.816Z,1.42
2022-09-23T16:55:59.020Z,1.80
2022-09-23T16:58:27.410Z,1.75
2022-09-23T17:01:18.065Z,1.40
2022-09-23T17:03:47.758Z,1.52
2022-09-23T17:06:19.438Z,1.30
2022-09-23T17:08:49.038Z,1.83
2022-09-23T17:11:17.665Z,1.70
2022-09-23T17:13:46.563Z,2.20
2022-09-23T17:16:26.855Z,1.55
2022-09-23T17:18:56.593Z,2.53
2022-09-23T17:21:27.005Z,2.30
2022-09-23T17:23:56.435Z,1.73
2022-09-23T17:26:27.410Z,1.60
2022-09-23T17:28:58.831Z,2.38
2022-09-23T17:31:28.806Z,1.98
2022-09-23T17:33:57.468Z,6.25
2022-09-23T17:36:25.872Z,2.58
2022-09-23T17:38:55.061Z,3.17
2022-09-23T17:41:23.450Z,2.40
2022-09-23T17:43:56.711Z,1.83
2022-09-23T17:46:25.360Z,1.45
2022-09-23T17:48:55.748Z,1.13
2022-09-23T17:51:25.659Z,1.67
2022-09-23T17:53:54.221Z,1.50
2022-09-23T17:56:25.502Z,1.95
2022-09-23T17:58:55.010Z,2.42
2022-09-23T18:01:25.552Z,1.63
2022-09-23T18:03:57.923Z,1.83
2022-09-23T18:06:28.852Z,2.33
2022-09-23T18:08:57.260Z,1.95
2022-09-23T18:11:28.048Z,2.65
2022-09-23T18:13:58.505Z,1.65
2022-09-23T18:16:29.572Z,3.45
2022-09-23T18:19:01.826Z,2.10
2022-09-23T18:21:33.804Z,2.63
2022-09-23T18:26:52.616Z,3.05
2022-09-23T18:29:20.981Z,2.63
2022-09-23T18:31:51.074Z,2.45
2022-09-23T18:34:21.268Z,2.70
2022-09-23T18:36:49.627Z,1.85
2022-09-23T18:39:18.057Z,2.10
2022-09-23T18:41:46.433Z,2.58
2022-09-23T18:44:15.883Z,2.22
2022-09-23T18:46:44.861Z,2.80
2022-09-23T18:49:30.018Z,2.85
2022-09-23T18:51:59.926Z,2.67
2022-09-23T18:54:30.401Z,3.17
2022-09-23T18:56:59.367Z,3.55
2022-09-23T18:59:29.115Z,2.08
2022-09-23T19:01:58.105Z,2.92
2022-09-23T19:04:29.008Z,2.38
2022-09-23T19:06:59.219Z,2.50
2022-09-23T19:09:27.702Z,2.72
2022-09-23T19:11:56.505Z,2.88
2022-09-23T19:14:25.531Z,2.75
2022-09-23T19:16:53.881Z,2.50
2022-09-23T19:19:22.400Z,2.25
2022-09-23T19:21:50.831Z,2.72
2022-09-23T19:24:21.090Z,2.13
2022-09-23T19:26:50.455Z,2.92
2022-09-23T19:29:21.859Z,2.78
2022-09-23T19:31:51.164Z,4.13
2022-09-23T19:34:23.968Z,5.22
2022-09-23T19:36:53.030Z,4.72
2022-09-23T19:39:24.859Z,3.40
2022-09-23T19:41:55.658Z,4.53
2022-09-23T19:44:25.231Z,5.03
2022-09-23T19:46:56.674Z,4.80
2022-09-23T19:49:26.485Z,4.07
2022-09-23T19:51:56.602Z,3.53
2022-09-23T19:54:27.567Z,4.15
2022-09-23T19:56:56.563Z,6.43
2022-09-23T19:59:26.466Z,6.25
2022-09-23T20:01:55.040Z,7.97
2022-09-23T20:04:23.940Z,6.55
2022-09-23T20:06:52.351Z,7.63
2022-09-23T20:09:21.038Z,7.53
2022-09-23T20:11:51.069Z,7.00
2022-09-23T20:14:19.464Z,5.95
2022-09-23T20:16:48.111Z,5.50
2022-09-23T20:19:16.638Z,5.82
2022-09-23T20:21:45.012Z,5.32
2022-09-23T20:24:13.748Z,4.38
2022-09-23T20:26:59.376Z,4.22
2022-09-23T20:29:29.065Z,4.57
2022-09-23T20:31:59.273Z,5.13
2022-09-23T20:34:29.924Z,6.85
2022-09-23T20:36:59.302Z,5.57
2022-09-23T20:39:28.127Z,6.25
2022-09-23T20:41:56.501Z,5.22
2022-09-23T20:44:25.126Z,5.82
2022-09-23T20:46:54.984Z,7.47
2022-09-23T20:49:23.473Z,6.43
2022-09-23T20:51:52.054Z,7.13
2022-09-23T20:54:20.472Z,5.20
2022-09-23T20:56:48.876Z,5.47
2022-09-23T20:59:18.008Z,6.50
2022-09-23T21:01:47.584Z,4.72
2022-09-23T21:04:18.278Z,4.68
2022-09-23T21:06:47.241Z,5.57
2022-09-23T21:09:15.565Z,5.07
2022-09-23T21:11:43.926Z,4.40
2022-09-23T21:14:12.309Z,5.45
2022-09-23T21:16:40.659Z,5.13
2022-09-23T21:19:09.169Z,4.53
2022-09-23T21:21:39.220Z,4.93
2022-09-23T21:24:39.781Z,4.15
2022-09-23T21:26:56.231Z,5.60
2022-09-23T21:29:24.541Z,4.75
2022-09-23T21:31:52.943Z,5.53
2022-09-23T21:34:21.358Z,3.50
2022-09-23T21:36:51.031Z,4.10
2022-09-23T21:39:19.537Z,4.65
2022-09-23T21:41:47.873Z,5.10
2022-09-23T21:44:16.234Z,4.40
2022-09-23T21:46:44.685Z,5.60
2022-09-23T21:49:13.314Z,5.18
2022-09-23T21:51:42.478Z,5.72
2022-09-23T21:54:16.970Z,4.57
2022-09-23T21:56:45.821Z,6.00
2022-09-23T21:59:14.208Z,5.50
2022-09-23T22:01:45.096Z,4.15
2022-09-23T22:04:17.607Z,4.97
2022-09-23T22:06:48.891Z,4.75
2022-09-23T22:09:21.969Z,5.32
2022-09-23T22:12:11.240Z,4.47
2022-09-23T22:14:39.751Z,3.80
2022-09-23T22:17:11.507Z,4.68
2022-09-23T22:19:46.459Z,4.35
2022-09-23T22:22:18.482Z,3.65
2022-09-23T22:24:49.707Z,4.25
2022-09-23T22:27:20.510Z,3.90
2022-09-23T22:30:06.511Z,3.72
2022-09-23T22:32:54.278Z,4.75
2022-09-23T22:35:23.598Z,4.97
2022-09-23T22:37:51.895Z,4.22
2022-09-23T22:40:24.261Z,3.50
2022-09-23T22:42:52.751Z,3.72
2022-09-23T22:45:21.233Z,4.35
2022-09-23T22:47:53.252Z,3.45
2022-09-23T22:50:21.568Z,4.22
2022-09-23T22:52:50.032Z,5.47
2022-09-23T22:55:18.552Z,3.95
2022-09-23T22:57:51.339Z,4.25
2022-09-23T23:00:20.749Z,4.13
2022-09-23T23:02:49.100Z,3.00
2022-09-23T23:05:17.636Z,3.50
2022-09-23T23:07:45.998Z,3.78
2022-09-23T23:10:17.235Z,2.88
2022-09-23T23:12:47.497Z,3.95
2022-09-23T23:15:16.357Z,3.38
2022-09-23T23:17:44.760Z,4.05
2022-09-23T23:20:13.348Z,2.63
2022-09-23T23:22:41.703Z,3.28
2022-09-23T23:25:10.854Z,4.07
2022-09-23T23:27:39.238Z,2.88
2022-09-23T23:30:10.979Z,3.33
2022-09-23T23:32:39.407Z,3.05
2022-09-23T23:35:09.130Z,3.47
2022-09-23T23:37:37.446Z,3.55
2022-09-23T23:40:07.422Z,3.55
2022-09-23T23:42:36.170Z,4.57
2022-09-23T23:45:05.388Z,5.22
2022-09-23T23:47:36.013Z,3.75
2022-09-23T23:50:05.737Z,5.20
2022-09-23T23:52:34.094Z,3.33
2022-09-23T23:55:02.521Z,3.65
2022-09-23T23:57:30.858Z,4.10
2022-09-23T23:59:59.196Z,3.28
